createdAt,value
2017-10-04T00:00:13.393Z,11.72
2017-10-04T00:01:13.385Z,11.72
2017-10-04T00:02:13.374Z,11.75
2017-10-04T00:03:13.365Z,11.77
2017-10-04T00:04:13.356Z,11.73
2017-10-04T00:05:13.346Z,11.75
2017-10-04T00:06:13.338Z,11.72
2017-10-04T00:07:13.330Z,11.77
2017-10-04T00:08:13.320Z,11.78
2017-10-04T00:09:13.309Z,11.73
2017-10-04T00:10:13.303Z,11.72
2017-10-04T00:11:13.297Z,11.68
2017-10-04T00:12:13.286Z,11.70
2017-10-04T00:13:13.276Z,11.77
2017-10-04T00:14:13.264Z,11.70
2017-10-04T00:15:13.254Z,11.70
2017-10-04T00:16:13.245Z,11.69
2017-10-04T00:17:13.250Z,11.70
2017-10-04T00:18:13.251Z,11.73
2017-10-04T00:19:13.218Z,11.78
2017-10-04T00:20:13.209Z,11.78
2017-10-04T00:21:13.199Z,11.70
2017-10-04T00:22:13.189Z,11.68
2017-10-04T00:23:13.180Z,11.73
2017-10-04T00:24:13.187Z,11.73
2017-10-04T00:25:13.161Z,11.73
2017-10-04T00:26:13.152Z,11.70
2017-10-04T00:27:13.147Z,11.70
2017-10-04T00:28:13.135Z,11.78
2017-10-04T00:29:13.125Z,11.73
2017-10-04T00:30:13.114Z,11.72
2017-10-04T00:31:13.116Z,11.73
2017-10-04T00:32:13.100Z,11.70
2017-10-04T00:33:13.092Z,11.72
2017-10-04T00:34:13.080Z,11.77
2017-10-04T00:35:13.071Z,11.70
2017-10-04T00:36:13.061Z,11.72
2017-10-04T00:37:13.052Z,11.72
2017-10-04T00:38:13.044Z,11.70
2017-10-04T00:39:13.035Z,11.73
2017-10-04T00:40:13.026Z,11.78
2017-10-04T00:41:13.021Z,11.75
2017-10-04T00:42:13.007Z,11.72
2017-10-04T00:43:13.005Z,11.70
2017-10-04T00:44:12.988Z,11.73
2017-10-04T00:45:12.982Z,11.78
2017-10-04T00:46:12.969Z,11.77
2017-10-04T00:47:12.959Z,11.70
2017-10-04T00:48:12.952Z,11.70
2017-10-04T00:49:12.943Z,11.69
2017-10-04T00:50:12.932Z,11.72
2017-10-04T00:51:12.923Z,11.75
2017-10-04T00:52:12.914Z,11.69
2017-10-04T00:53:12.907Z,11.73
2017-10-04T00:54:12.895Z,11.78
2017-10-04T00:55:12.890Z,11.73
2017-10-04T00:56:12.877Z,11.69
2017-10-04T00:57:12.868Z,11.75
2017-10-04T00:58:12.858Z,11.73
2017-10-04T00:59:12.856Z,11.70
2017-10-04T01:00:12.840Z,11.73
2017-10-04T01:01:12.830Z,11.70
2017-10-04T01:02:12.820Z,11.70
2017-10-04T01:03:12.812Z,11.70
2017-10-04T01:04:12.804Z,11.73
2017-10-04T01:05:12.793Z,11.77
2017-10-04T01:06:12.783Z,11.78
2017-10-04T01:07:12.775Z,11.75
2017-10-04T01:08:12.772Z,11.73
2017-10-04T01:09:12.757Z,11.70
2017-10-04T01:10:12.747Z,11.77
2017-10-04T01:11:12.745Z,11.70
2017-10-04T01:12:12.732Z,11.75
2017-10-04T01:13:12.721Z,11.73
2017-10-04T01:14:12.715Z,11.83
2017-10-04T01:15:12.702Z,11.77
2017-10-04T01:16:12.693Z,11.72
2017-10-04T01:17:12.683Z,11.75
2017-10-04T01:18:12.676Z,11.72
2017-10-04T01:19:12.666Z,11.70
2017-10-04T01:20:12.666Z,11.78
2017-10-04T01:21:12.646Z,11.72
2017-10-04T01:22:12.638Z,11.70
2017-10-04T01:23:12.628Z,11.75
2017-10-04T01:24:12.623Z,11.72
2017-10-04T01:25:12.611Z,11.73
2017-10-04T01:26:12.600Z,11.75
2017-10-04T01:27:12.593Z,11.73
2017-10-04T01:28:12.583Z,11.72
2017-10-04T01:29:12.572Z,11.70
2017-10-04T01:30:12.574Z,11.68
2017-10-04T01:31:12.556Z,11.68
2017-10-04T01:32:12.546Z,11.69
2017-10-04T01:33:12.537Z,11.65
2017-10-04T01:34:12.530Z,11.63
2017-10-04T01:35:12.518Z,11.66
2017-10-04T01:36:12.509Z,11.60
2017-10-04T01:37:12.498Z,11.68
2017-10-04T01:38:12.490Z,11.63
2017-10-04T01:39:12.486Z,11.66
2017-10-04T01:40:12.474Z,11.63
2017-10-04T01:41:12.465Z,11.68
2017-10-04T01:42:12.452Z,11.68
2017-10-04T01:43:12.449Z,11.68
2017-10-04T01:44:12.435Z,11.54
2017-10-04T01:45:12.426Z,11.66
2017-10-04T01:46:12.416Z,11.68
2017-10-04T01:47:12.406Z,11.68
2017-10-04T01:48:12.397Z,11.65
2017-10-04T01:49:12.387Z,11.65
2017-10-04T01:50:12.386Z,11.66
2017-10-04T01:51:12.370Z,11.69
2017-10-04T01:52:12.360Z,11.65
2017-10-04T01:53:12.352Z,11.68
2017-10-04T01:54:12.343Z,11.63
2017-10-04T01:55:12.333Z,11.63
2017-10-04T01:56:12.326Z,11.68
2017-10-04T01:57:12.313Z,11.69
2017-10-04T01:58:12.307Z,11.69
2017-10-04T01:59:12.297Z,11.60
2017-10-04T02:00:12.288Z,11.59
2017-10-04T02:01:12.278Z,11.62
2017-10-04T02:02:12.268Z,11.62
2017-10-04T02:03:12.260Z,11.63
2017-10-04T02:04:12.263Z,11.68
2017-10-04T02:05:12.250Z,11.62
2017-10-04T02:06:12.255Z,11.65
2017-10-04T02:07:12.224Z,11.63
2017-10-04T02:08:12.218Z,11.55
2017-10-04T02:09:12.207Z,11.62
2017-10-04T02:10:12.195Z,11.50
2017-10-04T02:11:12.185Z,11.57
2017-10-04T02:12:12.176Z,11.54
2017-10-04T02:13:12.166Z,11.54
2017-10-04T02:14:12.156Z,11.55
2017-10-04T02:15:12.147Z,11.60
2017-10-04T02:16:12.140Z,11.55
2017-10-04T02:17:12.129Z,11.54
2017-10-04T02:18:12.121Z,11.57
2017-10-04T02:19:12.117Z,11.60
2017-10-04T02:20:12.102Z,11.41
2017-10-04T02:21:12.092Z,11.52
2017-10-04T02:22:12.084Z,11.43
2017-10-04T02:23:12.080Z,11.50
2017-10-04T02:24:12.065Z,11.55
2017-10-04T02:25:12.055Z,11.50
2017-10-04T02:26:12.046Z,11.55
2017-10-04T02:27:12.037Z,11.50
2017-10-04T02:28:12.037Z,11.50
2017-10-04T02:29:12.021Z,11.45
2017-10-04T02:30:12.012Z,11.48
2017-10-04T02:31:12.001Z,11.51
2017-10-04T02:32:11.997Z,11.44
2017-10-04T02:33:11.982Z,11.48
2017-10-04T02:34:11.972Z,11.48
2017-10-04T02:35:11.962Z,11.48
2017-10-04T02:36:11.953Z,11.47
2017-10-04T02:37:11.946Z,11.48
2017-10-04T02:38:11.935Z,11.47
2017-10-04T02:39:11.926Z,11.41
2017-10-04T02:40:11.917Z,11.45
2017-10-04T02:41:11.918Z,11.44
2017-10-04T02:42:11.898Z,11.48
2017-10-04T02:43:11.888Z,11.50
2017-10-04T02:44:11.882Z,11.45
2017-10-04T02:45:11.870Z,11.44
2017-10-04T02:46:11.859Z,11.48
2017-10-04T02:47:11.851Z,11.40
2017-10-04T02:48:11.845Z,11.50
2017-10-04T02:49:11.832Z,11.51
2017-10-04T02:50:11.823Z,11.45
2017-10-04T02:51:11.817Z,11.47
2017-10-04T02:52:11.804Z,11.47
2017-10-04T02:53:11.798Z,11.57
2017-10-04T02:54:11.790Z,11.45
2017-10-04T02:55:11.777Z,11.57
2017-10-04T02:56:11.769Z,11.52
2017-10-04T02:57:11.760Z,11.52
2017-10-04T02:58:11.750Z,11.52
2017-10-04T02:59:11.741Z,11.57
2017-10-04T03:00:11.730Z,11.55
2017-10-04T03:01:11.720Z,11.48
2017-10-04T03:02:11.711Z,11.51
2017-10-04T03:03:11.703Z,11.51
2017-10-04T03:04:11.692Z,11.51
2017-10-04T03:05:11.684Z,11.54
2017-10-04T03:06:11.692Z,11.55
2017-10-04T03:07:11.664Z,11.57
2017-10-04T03:08:11.659Z,11.48
2017-10-04T03:09:11.649Z,11.59
2017-10-04T03:10:11.641Z,11.48
2017-10-04T03:11:11.628Z,11.50
2017-10-04T03:12:11.619Z,11.48
2017-10-04T03:13:11.608Z,11.45
2017-10-04T03:14:11.600Z,11.59
2017-10-04T03:15:11.598Z,11.41
2017-10-04T03:16:11.582Z,11.51
2017-10-04T03:17:11.573Z,11.41
2017-10-04T03:18:11.563Z,11.45
2017-10-04T03:19:11.554Z,11.51
2017-10-04T03:20:11.543Z,11.40
2017-10-04T03:21:11.536Z,11.52
2017-10-04T03:22:11.526Z,11.41
2017-10-04T03:23:11.518Z,11.48
2017-10-04T03:24:11.511Z,11.48
2017-10-04T03:25:11.501Z,11.47
2017-10-04T03:26:11.490Z,11.45
2017-10-04T03:27:11.478Z,11.48
2017-10-04T03:28:11.471Z,11.55
2017-10-04T03:29:11.460Z,11.52
2017-10-04T03:30:11.459Z,11.45
2017-10-04T03:31:11.443Z,11.51
2017-10-04T03:32:11.457Z,11.43
2017-10-04T03:33:11.455Z,11.51
2017-10-04T03:34:11.415Z,11.43
2017-10-04T03:35:11.407Z,11.47
2017-10-04T03:36:11.395Z,11.44
2017-10-04T03:37:11.386Z,11.47
2017-10-04T03:38:11.377Z,11.45
2017-10-04T03:39:11.371Z,11.33
2017-10-04T03:40:11.359Z,11.37
2017-10-04T03:41:11.349Z,11.44
2017-10-04T03:42:11.340Z,11.40
2017-10-04T03:43:11.331Z,11.40
2017-10-04T03:44:11.324Z,11.43
2017-10-04T03:45:11.310Z,11.41
2017-10-04T03:46:11.301Z,11.33
2017-10-04T03:47:11.293Z,11.37
2017-10-04T03:48:11.288Z,11.40
2017-10-04T03:49:11.273Z,11.41
2017-10-04T03:50:11.269Z,11.45
2017-10-04T03:51:11.257Z,11.43
2017-10-04T03:52:11.246Z,11.37
2017-10-04T03:53:11.237Z,11.37
2017-10-04T03:54:11.227Z,11.43
2017-10-04T03:55:11.219Z,11.41
2017-10-04T03:56:11.210Z,11.40
2017-10-04T03:57:11.200Z,11.43
2017-10-04T03:58:11.192Z,11.40
2017-10-04T03:59:11.187Z,11.40
2017-10-04T04:00:11.171Z,11.40
2017-10-04T04:01:11.162Z,11.41
2017-10-04T04:02:11.158Z,11.32
2017-10-04T04:03:11.143Z,11.40
2017-10-04T04:04:11.134Z,11.37
2017-10-04T04:05:11.126Z,11.43
2017-10-04T04:06:11.118Z,11.40
2017-10-04T04:07:11.110Z,11.43
2017-10-04T04:08:11.098Z,11.43
2017-10-04T04:09:11.089Z,11.33
2017-10-04T04:10:11.080Z,11.43
2017-10-04T04:11:11.076Z,11.40
2017-10-04T04:12:11.061Z,11.35
2017-10-04T04:13:11.054Z,11.37
2017-10-04T04:14:11.041Z,11.36
2017-10-04T04:15:11.035Z,11.35
2017-10-04T04:16:11.024Z,11.41
2017-10-04T04:17:11.013Z,11.40
2017-10-04T04:18:11.003Z,11.41
2017-10-04T04:19:10.995Z,11.37
2017-10-04T04:20:10.984Z,11.26
2017-10-04T04:21:10.976Z,11.29
2017-10-04T04:22:10.968Z,11.33
2017-10-04T04:23:10.957Z,11.27
2017-10-04T04:24:10.947Z,11.29
2017-10-04T04:25:10.940Z,11.32
2017-10-04T04:26:10.928Z,11.32
2017-10-04T04:27:10.919Z,11.25
2017-10-04T04:28:10.924Z,11.29
2017-10-04T04:29:10.900Z,11.29
2017-10-04T04:30:10.891Z,11.26
2017-10-04T04:31:10.881Z,11.19
2017-10-04T04:32:10.873Z,11.23
2017-10-04T04:33:10.862Z,11.19
2017-10-04T04:34:10.852Z,11.26
2017-10-04T04:35:10.845Z,11.26
2017-10-04T04:36:10.834Z,11.22
2017-10-04T04:37:10.824Z,11.17
2017-10-04T04:38:10.816Z,11.23
2017-10-04T04:39:10.806Z,11.29
2017-10-04T04:40:10.797Z,11.18
2017-10-04T04:41:10.789Z,11.23
2017-10-04T04:42:10.782Z,11.18
2017-10-04T04:43:10.768Z,11.12
2017-10-04T04:44:10.762Z,11.15
2017-10-04T04:45:10.749Z,11.07
2017-10-04T04:46:10.738Z,11.12
2017-10-04T04:47:10.729Z,11.15
2017-10-04T04:48:10.722Z,11.12
2017-10-04T04:49:10.712Z,11.10
2017-10-04T04:50:10.705Z,11.14
2017-10-04T04:51:10.695Z,11.14
2017-10-04T04:52:10.685Z,11.15
2017-10-04T04:53:10.672Z,11.12
2017-10-04T04:54:10.666Z,11.02
2017-10-04T04:55:10.654Z,11.07
2017-10-04T04:56:10.650Z,11.11
2017-10-04T04:57:10.635Z,11.04
2017-10-04T04:58:10.626Z,10.96
2017-10-04T04:59:10.615Z,11.08
2017-10-04T05:00:10.607Z,11.11
2017-10-04T05:01:10.597Z,11.02
2017-10-04T05:02:10.590Z,11.05
2017-10-04T05:03:10.579Z,11.02
2017-10-04T05:04:10.569Z,11.08
2017-10-04T05:05:10.559Z,10.97
2017-10-04T05:06:10.551Z,10.92
2017-10-04T05:07:10.540Z,10.93
2017-10-04T05:08:10.530Z,11.04
2017-10-04T05:09:10.520Z,10.92
2017-10-04T05:10:10.513Z,10.96
2017-10-04T05:11:10.502Z,10.92
2017-10-04T05:12:10.493Z,10.86
2017-10-04T05:13:10.489Z,10.89
2017-10-04T05:14:10.501Z,10.89
2017-10-04T05:15:10.465Z,10.84
2017-10-04T05:16:10.456Z,10.89
2017-10-04T05:17:10.443Z,10.86
2017-10-04T05:18:10.436Z,10.89
2017-10-04T05:19:10.428Z,10.82
2017-10-04T05:20:10.417Z,10.84
2017-10-04T05:21:10.408Z,10.84
2017-10-04T05:22:10.396Z,10.87
2017-10-04T05:23:10.386Z,10.87
2017-10-04T05:24:10.378Z,10.87
2017-10-04T05:25:10.368Z,10.81
2017-10-04T05:26:10.359Z,10.81
2017-10-04T05:27:10.348Z,10.87
2017-10-04T05:28:10.340Z,10.90
2017-10-04T05:29:10.335Z,10.86
2017-10-04T05:30:10.319Z,10.82
2017-10-04T05:31:10.310Z,10.94
2017-10-04T05:32:10.301Z,10.90
2017-10-04T05:33:10.292Z,10.96
2017-10-04T05:34:10.282Z,10.94
2017-10-04T05:35:10.273Z,10.90
2017-10-04T05:36:10.262Z,11.00
2017-10-04T05:37:10.252Z,10.96
2017-10-04T05:38:10.243Z,10.97
2017-10-04T05:39:10.239Z,10.99
2017-10-04T05:40:10.224Z,11.11
2017-10-04T05:41:10.213Z,11.04
2017-10-04T05:42:10.204Z,11.11
2017-10-04T05:43:10.194Z,11.02
2017-10-04T05:44:10.185Z,11.04
2017-10-04T05:45:10.175Z,11.04
2017-10-04T05:46:10.172Z,10.99
2017-10-04T05:47:10.159Z,11.05
2017-10-04T05:48:10.146Z,10.92
2017-10-04T05:49:10.137Z,10.96
2017-10-04T05:50:10.127Z,10.92
2017-10-04T05:51:10.118Z,10.89
2017-10-04T05:52:10.108Z,10.97
2017-10-04T05:53:10.097Z,10.92
2017-10-04T05:54:10.088Z,10.82
2017-10-04T05:55:10.079Z,10.90
2017-10-04T05:56:10.069Z,10.84
2017-10-04T05:57:10.058Z,10.86
2017-10-04T05:58:10.050Z,10.84
2017-10-04T05:59:10.046Z,10.81
2017-10-04T06:00:10.030Z,10.81
2017-10-04T06:01:10.020Z,10.84
2017-10-04T06:02:10.016Z,10.76
2017-10-04T06:03:10.003Z,10.79
2017-10-04T06:04:09.991Z,10.81
2017-10-04T06:05:09.982Z,10.81
2017-10-04T06:06:09.972Z,10.76
2017-10-04T06:07:09.962Z,10.79
2017-10-04T06:08:09.954Z,10.78
2017-10-04T06:09:09.942Z,10.75
2017-10-04T06:10:09.933Z,10.81
2017-10-04T06:11:09.932Z,10.86
2017-10-04T06:12:09.915Z,10.82
2017-10-04T06:13:09.904Z,10.81
2017-10-04T06:14:09.895Z,10.78
2017-10-04T06:15:09.885Z,10.84
2017-10-04T06:16:09.878Z,10.82
2017-10-04T06:17:09.870Z,10.82
2017-10-04T06:18:09.860Z,10.84
2017-10-04T06:19:09.847Z,10.89
2017-10-04T06:20:09.836Z,10.84
2017-10-04T06:21:09.830Z,10.84
2017-10-04T06:22:09.817Z,10.92
2017-10-04T06:23:09.808Z,10.99
2017-10-04T06:24:09.799Z,10.89
2017-10-04T06:25:09.787Z,10.93
2017-10-04T06:26:09.778Z,10.89
2017-10-04T06:27:09.768Z,10.89
2017-10-04T06:28:09.759Z,10.94
2017-10-04T06:29:09.751Z,11.07
2017-10-04T06:30:09.741Z,11.07
2017-10-04T06:31:09.731Z,11.07
2017-10-04T06:32:09.721Z,11.04
2017-10-04T06:33:09.711Z,11.07
2017-10-04T06:34:09.703Z,11.04
2017-10-04T06:35:09.692Z,11.11
2017-10-04T06:36:09.685Z,11.12
2017-10-04T06:37:09.672Z,11.08
2017-10-04T06:38:09.663Z,11.12
2017-10-04T06:39:09.652Z,11.05
2017-10-04T06:40:09.645Z,11.15
2017-10-04T06:41:09.633Z,11.23
2017-10-04T06:42:09.638Z,11.27
2017-10-04T06:43:09.616Z,11.18
2017-10-04T06:44:09.608Z,11.25
2017-10-04T06:45:09.596Z,11.35
2017-10-04T06:46:09.586Z,11.35
2017-10-04T06:47:09.582Z,11.26
2017-10-04T06:48:09.572Z,11.35
2017-10-04T06:49:09.559Z,11.26
2017-10-04T06:50:09.551Z,11.44
2017-10-04T06:51:09.545Z,11.41
2017-10-04T06:52:09.531Z,11.40
2017-10-04T06:53:09.522Z,11.41
2017-10-04T06:54:09.512Z,11.41
2017-10-04T06:55:09.503Z,11.45
2017-10-04T06:56:09.494Z,11.50
2017-10-04T06:57:09.485Z,11.55
2017-10-04T06:58:09.475Z,11.63
2017-10-04T06:59:09.465Z,11.73
2017-10-04T07:00:09.458Z,11.83
2017-10-04T07:01:09.455Z,11.90
2017-10-04T07:02:09.438Z,11.90
2017-10-04T07:03:09.428Z,11.86
2017-10-04T07:04:09.418Z,11.95
2017-10-04T07:05:09.409Z,12.04
2017-10-04T07:06:09.420Z,12.02
2017-10-04T07:07:09.392Z,12.02
2017-10-04T07:08:09.381Z,11.99
2017-10-04T07:09:09.373Z,12.02
2017-10-04T07:10:09.364Z,12.04
2017-10-04T07:11:09.354Z,12.07
2017-10-04T07:12:09.349Z,12.07
2017-10-04T07:13:09.335Z,12.04
2017-10-04T07:14:09.328Z,12.06
2017-10-04T07:15:09.324Z,11.99
2017-10-04T07:16:09.311Z,12.13
2017-10-04T07:17:09.301Z,12.00
2017-10-04T07:18:09.292Z,12.07
2017-10-04T07:19:09.283Z,12.21
2017-10-04T07:20:09.281Z,12.17
2017-10-04T07:21:09.265Z,12.15
2017-10-04T07:22:09.259Z,12.24
2017-10-04T07:23:09.248Z,12.22
2017-10-04T07:24:09.240Z,12.31
2017-10-04T07:25:09.229Z,12.25
2017-10-04T07:26:09.220Z,12.29
2017-10-04T07:27:09.212Z,12.27
2017-10-04T07:28:09.204Z,12.27
2017-10-04T07:29:09.202Z,12.27
2017-10-04T07:30:09.184Z,12.35
2017-10-04T07:31:09.175Z,12.32
2017-10-04T07:32:09.167Z,12.31
2017-10-04T07:33:09.160Z,12.42
2017-10-04T07:34:09.151Z,12.46
2017-10-04T07:35:09.142Z,12.45
2017-10-04T07:36:09.135Z,12.55
2017-10-04T07:37:09.123Z,12.54
2017-10-04T07:38:09.117Z,12.53
2017-10-04T07:39:09.109Z,12.55
2017-10-04T07:40:09.101Z,12.58
2017-10-04T07:41:09.090Z,12.61
2017-10-04T07:42:09.081Z,12.62
2017-10-04T07:43:09.073Z,12.72
2017-10-04T07:44:09.065Z,12.62
2017-10-04T07:45:09.055Z,12.64
2017-10-04T07:46:09.052Z,12.64
2017-10-04T07:47:09.039Z,12.65
2017-10-04T07:48:09.031Z,12.67
2017-10-04T07:49:09.021Z,12.72
2017-10-04T07:50:09.015Z,12.65
2017-10-04T07:51:09.005Z,12.61
2017-10-04T07:52:09.001Z,12.68
2017-10-04T07:53:08.988Z,12.72
2017-10-04T07:54:08.981Z,12.64
2017-10-04T07:55:08.974Z,12.72
2017-10-04T07:56:08.973Z,12.72
2017-10-04T07:57:08.956Z,12.73
2017-10-04T07:58:08.945Z,12.64
2017-10-04T07:59:08.938Z,12.68
2017-10-04T08:00:08.930Z,12.75
2017-10-04T08:01:08.919Z,12.64
2017-10-04T08:02:08.924Z,12.76
2017-10-04T08:03:08.906Z,12.79
2017-10-04T08:04:08.897Z,12.79
2017-10-04T08:05:08.889Z,12.82
2017-10-04T08:06:08.879Z,12.75
2017-10-04T08:07:08.872Z,12.93
2017-10-04T08:08:08.884Z,12.91
2017-10-04T08:09:08.858Z,12.86
2017-10-04T08:10:08.850Z,12.91
2017-10-04T08:11:08.854Z,12.93
2017-10-04T08:12:08.830Z,12.87
2017-10-04T08:13:08.822Z,12.85
2017-10-04T08:14:08.812Z,12.93
2017-10-04T08:15:08.805Z,12.83
2017-10-04T08:16:08.804Z,12.94
2017-10-04T08:17:08.789Z,12.95
2017-10-04T08:18:08.798Z,12.98
2017-10-04T08:19:08.782Z,13.05
2017-10-04T08:20:08.768Z,13.03
2017-10-04T08:21:08.774Z,12.97
2017-10-04T08:22:08.754Z,13.00
2017-10-04T08:23:08.751Z,13.01
2017-10-04T08:24:08.738Z,13.09
2017-10-04T08:25:08.723Z,13.13
2017-10-04T08:26:08.722Z,13.15
2017-10-04T08:27:08.709Z,13.19
2017-10-04T08:28:08.739Z,13.16
2017-10-04T08:29:08.699Z,13.12
2017-10-04T08:30:08.696Z,13.20
2017-10-04T08:31:08.687Z,13.16
2017-10-04T08:32:08.707Z,13.27
2017-10-04T08:33:08.658Z,13.27
2017-10-04T08:34:08.658Z,13.28
2017-10-04T08:35:08.662Z,13.27
2017-10-04T08:36:08.639Z,13.33
2017-10-04T08:37:08.631Z,13.31
2017-10-04T08:38:08.655Z,13.42
2017-10-04T08:39:08.630Z,13.35
2017-10-04T08:40:08.603Z,13.54
2017-10-04T08:41:08.593Z,13.54
2017-10-04T08:42:08.589Z,13.60
2017-10-04T08:43:08.581Z,13.92
2017-10-04T08:44:08.574Z,13.96
2017-10-04T08:45:08.563Z,13.95
2017-10-04T08:46:08.555Z,14.08
2017-10-04T08:47:08.551Z,14.12
2017-10-04T08:48:08.543Z,14.23
2017-10-04T08:49:08.532Z,14.15
2017-10-04T08:50:08.525Z,14.07
2017-10-04T08:51:08.518Z,13.97
2017-10-04T08:52:08.510Z,14.03
2017-10-04T08:53:08.501Z,14.04
2017-10-04T08:54:08.494Z,14.18
2017-10-04T08:55:08.487Z,14.30
2017-10-04T08:56:08.481Z,14.25
2017-10-04T08:57:13.295Z,14.25
2017-10-04T08:58:11.682Z,14.29
2017-10-04T08:59:08.460Z,14.26
2017-10-04T09:00:08.461Z,14.22
2017-10-04T09:01:08.474Z,14.53
2017-10-04T09:02:08.445Z,14.73
2017-10-04T09:03:08.435Z,14.92
2017-10-04T09:04:08.439Z,14.86
2017-10-04T09:05:08.426Z,14.92
2017-10-04T09:06:08.411Z,14.89
2017-10-04T09:07:08.407Z,14.81
2017-10-04T09:08:08.395Z,14.89
2017-10-04T09:09:08.387Z,14.86
2017-10-04T09:10:08.398Z,14.66
2017-10-04T09:11:08.376Z,14.62
2017-10-04T09:12:08.369Z,14.60
2017-10-04T09:13:08.362Z,14.54
2017-10-04T09:14:08.363Z,14.54
2017-10-04T09:15:08.349Z,14.44
2017-10-04T09:16:08.342Z,14.45
2017-10-04T09:17:08.337Z,14.32
2017-10-04T09:18:08.328Z,14.28
2017-10-04T09:19:08.321Z,14.36
2017-10-04T09:20:08.315Z,14.28
2017-10-04T09:21:08.307Z,14.23
2017-10-04T09:22:08.300Z,14.20
2017-10-04T09:23:08.293Z,14.15
2017-10-04T09:24:08.287Z,14.03
2017-10-04T09:25:08.278Z,13.97
2017-10-04T09:26:08.272Z,14.00
2017-10-04T09:27:08.267Z,13.95
2017-10-04T09:28:08.261Z,13.99
2017-10-04T09:29:08.251Z,13.96
2017-10-04T09:30:08.247Z,13.99
2017-10-04T09:31:08.237Z,14.03
2017-10-04T09:32:08.231Z,13.96
2017-10-04T09:33:08.227Z,13.99
2017-10-04T09:34:08.215Z,14.10
2017-10-04T09:35:08.209Z,14.14
2017-10-04T09:36:08.201Z,14.25
2017-10-04T09:37:08.208Z,14.26
2017-10-04T09:38:08.187Z,14.22
2017-10-04T09:39:08.179Z,14.25
2017-10-04T09:40:08.172Z,14.25
2017-10-04T09:41:08.165Z,14.29
2017-10-04T09:42:08.158Z,14.22
2017-10-04T09:43:08.150Z,14.33
2017-10-04T09:44:08.146Z,14.35
2017-10-04T09:45:08.134Z,14.33
2017-10-04T09:46:08.128Z,14.32
2017-10-04T09:47:08.121Z,14.33
2017-10-04T09:48:08.117Z,14.41
2017-10-04T09:49:08.107Z,14.48
2017-10-04T09:50:08.100Z,14.58
2017-10-04T09:51:08.095Z,14.68
2017-10-04T09:52:08.085Z,14.66
2017-10-04T09:53:08.080Z,14.63
2017-10-04T09:54:08.087Z,14.68
2017-10-04T09:55:08.064Z,14.66
2017-10-04T09:56:08.067Z,14.60
2017-10-04T09:57:08.050Z,14.65
2017-10-04T09:58:08.043Z,14.69
2017-10-04T09:59:08.037Z,14.55
2017-10-04T10:00:08.035Z,14.59
2017-10-04T10:01:08.024Z,14.59
2017-10-04T10:02:08.016Z,14.68
2017-10-04T10:03:08.011Z,14.65
2017-10-04T10:04:08.004Z,14.65
2017-10-04T10:05:08.007Z,14.66
2017-10-04T10:06:08.555Z,14.62
2017-10-04T10:07:08.483Z,14.63
2017-10-04T10:08:07.975Z,14.50
2017-10-04T10:09:07.967Z,14.48
2017-10-04T10:10:07.967Z,14.59
2017-10-04T10:11:07.955Z,14.32
2017-10-04T10:12:07.949Z,14.35
2017-10-04T10:13:07.942Z,14.23
2017-10-04T10:14:07.931Z,14.30
2017-10-04T10:15:07.926Z,14.20
2017-10-04T10:16:07.919Z,14.25
2017-10-04T10:17:07.914Z,14.23
2017-10-04T10:18:07.906Z,14.23
2017-10-04T10:19:07.896Z,14.23
2017-10-04T10:20:07.889Z,14.15
2017-10-04T10:21:07.883Z,14.18
2017-10-04T10:22:07.876Z,14.25
2017-10-04T10:23:07.868Z,14.29
2017-10-04T10:24:07.860Z,14.29
2017-10-04T10:25:07.853Z,14.33
2017-10-04T10:26:07.848Z,14.28
2017-10-04T10:27:07.841Z,14.29
2017-10-04T10:28:07.844Z,14.26
2017-10-04T10:29:07.824Z,14.25
2017-10-04T10:30:07.818Z,14.25
2017-10-04T10:31:07.810Z,14.35
2017-10-04T10:32:07.806Z,14.48
2017-10-04T10:33:07.796Z,14.44
2017-10-04T10:34:07.787Z,14.54
2017-10-04T10:35:07.782Z,14.55
2017-10-04T10:36:07.774Z,14.68
2017-10-04T10:37:07.765Z,14.63
2017-10-04T10:38:07.759Z,14.65
2017-10-04T10:39:07.752Z,14.69
2017-10-04T10:40:07.747Z,14.66
2017-10-04T10:41:07.738Z,14.59
2017-10-04T10:42:07.731Z,14.55
2017-10-04T10:43:07.723Z,14.53
2017-10-04T10:44:07.722Z,14.55
2017-10-04T10:45:07.709Z,14.48
2017-10-04T10:46:07.706Z,14.40
2017-10-04T10:47:07.694Z,14.44
2017-10-04T10:48:07.732Z,14.44
2017-10-04T10:49:07.684Z,14.48
2017-10-04T10:50:07.674Z,14.50
2017-10-04T10:51:07.692Z,14.65
2017-10-04T10:52:07.663Z,14.92
2017-10-04T10:53:07.654Z,15.00
2017-10-04T10:54:07.645Z,15.18
2017-10-04T10:55:07.641Z,15.19
2017-10-04T10:56:07.630Z,15.22
2017-10-04T10:57:07.624Z,15.21
2017-10-04T10:58:07.616Z,15.11
2017-10-04T10:59:07.622Z,15.10
2017-10-04T11:00:07.604Z,15.07
2017-10-04T11:01:07.600Z,15.11
2017-10-04T11:02:07.597Z,15.14
2017-10-04T11:03:07.590Z,15.24
2017-10-04T11:04:07.578Z,15.11
2017-10-04T11:05:07.571Z,15.07
2017-10-04T11:06:07.570Z,15.07
2017-10-04T11:07:07.559Z,15.06
2017-10-04T11:08:07.550Z,15.15
2017-10-04T11:09:07.551Z,15.04
2017-10-04T11:10:07.538Z,15.03
2017-10-04T11:11:07.531Z,15.04
2017-10-04T11:12:07.524Z,15.02
2017-10-04T11:13:07.517Z,14.97
2017-10-04T11:14:07.515Z,15.07
2017-10-04T11:15:07.507Z,14.96
2017-10-04T11:16:07.498Z,15.03
2017-10-04T11:17:07.493Z,15.07
2017-10-04T11:18:07.486Z,15.33
2017-10-04T11:19:07.478Z,15.29
2017-10-04T11:20:07.472Z,15.64
2017-10-04T11:21:07.464Z,15.62
2017-10-04T11:22:07.461Z,15.67
2017-10-04T11:23:07.453Z,15.62
2017-10-04T11:24:07.451Z,15.59
2017-10-04T11:25:07.440Z,15.59
2017-10-04T11:26:07.434Z,15.59
2017-10-04T11:27:07.429Z,15.59
2017-10-04T11:28:07.424Z,15.62
2017-10-04T11:29:07.418Z,15.65
2017-10-04T11:30:07.413Z,15.65
2017-10-04T11:31:07.404Z,15.73
2017-10-04T11:32:07.401Z,15.70
2017-10-04T11:33:07.392Z,15.70
2017-10-04T11:34:07.386Z,15.79
2017-10-04T11:35:07.382Z,15.76
2017-10-04T11:36:07.374Z,15.79
2017-10-04T11:37:07.366Z,15.73
2017-10-04T11:38:07.362Z,15.79
2017-10-04T11:39:07.360Z,15.83
2017-10-04T11:40:07.358Z,15.70
2017-10-04T11:41:07.351Z,15.73
2017-10-04T11:42:07.340Z,15.76
2017-10-04T11:43:07.341Z,15.68
2017-10-04T11:44:07.327Z,15.75
2017-10-04T11:45:07.322Z,15.73
2017-10-04T11:46:07.315Z,15.72
2017-10-04T11:47:07.309Z,15.68
2017-10-04T11:48:07.306Z,15.64
2017-10-04T11:49:07.297Z,15.79
2017-10-04T11:50:07.293Z,15.75
2017-10-04T11:51:07.287Z,15.73
2017-10-04T11:52:07.281Z,15.73
2017-10-04T11:53:07.274Z,15.73
2017-10-04T11:54:07.270Z,15.72
2017-10-04T11:55:07.263Z,15.70
2017-10-04T11:56:07.256Z,15.62
2017-10-04T11:57:07.249Z,15.65
2017-10-04T11:58:07.245Z,15.59
2017-10-04T11:59:07.261Z,15.59
2017-10-04T12:00:07.239Z,15.59
2017-10-04T12:01:07.233Z,15.55
2017-10-04T12:02:07.227Z,15.47
2017-10-04T12:03:07.215Z,15.47
2017-10-04T12:04:07.212Z,15.51
2017-10-04T12:05:07.203Z,15.36
2017-10-04T12:06:07.196Z,15.36
2017-10-04T12:07:07.191Z,15.31
2017-10-04T12:08:07.184Z,15.37
2017-10-04T12:09:07.178Z,15.27
2017-10-04T12:10:07.173Z,15.21
2017-10-04T12:11:07.165Z,15.18
2017-10-04T12:12:07.164Z,15.15
2017-10-04T12:13:07.153Z,15.14
2017-10-04T12:14:07.155Z,15.11
2017-10-04T12:15:07.139Z,15.07
2017-10-04T12:16:07.136Z,15.07
2017-10-04T12:17:07.126Z,15.18
2017-10-04T12:18:07.126Z,15.10
2017-10-04T12:19:07.113Z,15.04
2017-10-04T12:20:07.107Z,15.07
2017-10-04T12:21:07.101Z,15.06
2017-10-04T12:22:07.094Z,15.09
2017-10-04T12:23:07.089Z,15.04
2017-10-04T12:24:07.079Z,15.06
2017-10-04T12:25:07.072Z,15.06
2017-10-04T12:26:07.066Z,15.07
2017-10-04T12:27:07.062Z,15.06
2017-10-04T12:28:07.053Z,15.02
2017-10-04T12:29:07.047Z,15.03
2017-10-04T12:30:07.043Z,15.04
2017-10-04T12:31:07.041Z,15.07
2017-10-04T12:32:07.027Z,15.02
2017-10-04T12:33:07.018Z,15.11
2017-10-04T12:34:07.013Z,15.07
2017-10-04T12:35:07.022Z,15.14
2017-10-04T12:36:07.000Z,15.14
2017-10-04T12:37:06.991Z,15.06
2017-10-04T12:38:06.985Z,15.06
2017-10-04T12:39:06.977Z,15.04
2017-10-04T12:40:06.972Z,15.03
2017-10-04T12:41:06.965Z,15.02
2017-10-04T12:42:06.955Z,15.04
2017-10-04T12:43:06.950Z,15.09
2017-10-04T12:44:06.943Z,15.14
2017-10-04T12:45:06.935Z,15.09
2017-10-04T12:46:06.930Z,15.11
2017-10-04T12:47:06.922Z,15.15
2017-10-04T12:48:06.918Z,15.15
2017-10-04T12:49:06.911Z,15.14
2017-10-04T12:50:06.901Z,15.09
2017-10-04T12:51:06.893Z,15.10
2017-10-04T12:52:06.889Z,15.04